Terminal Aerodrome Forecast
Issued by NWS

Home | Current Version | Previous Version | Graphics & Text | Print | Product List | Glossary On
Versions: 1 2 3 4 5 6 7 8 9 10 11 12 13 14 15 16 17 18 19
051
FTUS43 KUNR 252320
TAFGCC
TAF
KGCC 252320Z 2600/2624 36011KT 1SM -SN BKN007 OVC015
     FM260200 36011KT P6SM OVC010
     FM261700 18004KT P6SM SCT025=

USA.gov is the U.S. government's official web portal to all federal, state and local government web resources and services.